createdAt,value
2018-12-01T00:01:28.426Z,18.93
2018-12-01T00:03:56.543Z,20.40
2018-12-01T00:06:24.668Z,19.97
2018-12-01T00:08:52.783Z,17.90
2018-12-01T00:11:20.902Z,18.97
2018-12-01T00:13:49.023Z,22.60
2018-12-01T00:16:17.157Z,18.30
2018-12-01T00:18:45.282Z,21.60
2018-12-01T00:21:13.393Z,16.03
2018-12-01T00:23:41.535Z,15.87
2018-12-01T00:26:09.629Z,19.07
2018-12-01T00:28:37.725Z,22.87
2018-12-01T00:31:05.981Z,18.53
2018-12-01T00:33:34.074Z,21.50
2018-12-01T00:36:02.203Z,23.00
2018-12-01T00:38:30.308Z,22.37
2018-12-01T00:40:58.428Z,17.20
2018-12-01T00:43:26.549Z,16.90
2018-12-01T00:45:54.659Z,21.00
2018-12-01T00:48:22.785Z,17.70
2018-12-01T00:50:50.914Z,17.43
2018-12-01T00:53:19.038Z,17.40
2018-12-01T00:55:47.176Z,19.83
2018-12-01T00:58:15.314Z,16.10
2018-12-01T01:00:43.462Z,21.90
2018-12-01T01:03:11.575Z,16.93
2018-12-01T01:05:39.714Z,21.60
2018-12-01T01:08:07.814Z,22.90
2018-12-01T01:10:35.944Z,20.93
2018-12-01T01:13:04.090Z,18.10
2018-12-01T01:15:32.210Z,24.27
2018-12-01T01:18:00.368Z,20.17
2018-12-01T01:20:28.508Z,19.90
2018-12-01T01:22:56.623Z,22.17
2018-12-01T01:25:24.759Z,28.67
2018-12-01T01:27:52.878Z,26.70
2018-12-01T01:30:21.985Z,28.10
2018-12-01T01:32:51.124Z,28.63
2018-12-01T01:35:19.289Z,23.17
2018-12-01T01:37:47.422Z,20.93
2018-12-01T01:40:17.234Z,25.40
2018-12-01T01:42:45.408Z,26.33
2018-12-01T01:45:16.555Z,25.30
2018-12-01T01:47:44.699Z,27.13
2018-12-01T01:50:17.670Z,31.97
2018-12-01T01:52:45.797Z,34.00
2018-12-01T01:55:13.901Z,24.00
2018-12-01T01:57:42.055Z,27.73
2018-12-01T02:00:14.679Z,25.50
2018-12-01T02:02:45.792Z,27.23
2018-12-01T02:05:14.612Z,22.40
2018-12-01T02:07:42.715Z,26.60
2018-12-01T02:10:11.875Z,20.90
2018-12-01T02:12:39.965Z,18.57
2018-12-01T02:15:09.058Z,26.13
2018-12-01T02:17:37.164Z,37.77
2018-12-01T02:20:09.592Z,22.67
2018-12-01T02:22:37.742Z,18.77
2018-12-01T02:25:06.542Z,17.60
2018-12-01T02:27:34.685Z,16.70
2018-12-01T02:30:02.789Z,20.70
2018-12-01T02:32:30.919Z,16.07
2018-12-01T02:34:59.073Z,16.80
2018-12-01T02:37:27.183Z,20.93
2018-12-01T02:39:55.276Z,19.13
2018-12-01T02:42:23.356Z,26.00
2018-12-01T02:45:03.774Z,22.90
2018-12-01T02:47:31.966Z,24.60
2018-12-01T02:50:00.073Z,25.33
2018-12-01T02:52:28.167Z,29.33
2018-12-01T02:54:56.317Z,23.73
2018-12-01T02:57:24.737Z,20.60
2018-12-01T02:59:52.837Z,19.53
2018-12-01T03:02:20.938Z,25.30
2018-12-01T03:04:49.021Z,20.03
2018-12-01T03:07:17.130Z,18.67
2018-12-01T03:09:45.233Z,19.30
2018-12-01T03:12:13.341Z,18.00
2018-12-01T03:14:41.437Z,15.50
2018-12-01T03:17:09.560Z,16.47
2018-12-01T03:19:37.654Z,22.57
2018-12-01T03:22:05.997Z,15.33
2018-12-01T03:24:34.080Z,18.30
2018-12-01T03:27:02.449Z,19.67
2018-12-01T03:29:30.530Z,16.20
2018-12-01T03:31:58.641Z,18.03
2018-12-01T03:34:26.749Z,22.27
2018-12-01T03:36:54.864Z,18.90
2018-12-01T03:39:22.953Z,19.37
2018-12-01T03:41:51.081Z,22.30
2018-12-01T03:44:19.191Z,18.77
2018-12-01T03:46:47.309Z,15.77
2018-12-01T03:49:15.480Z,17.53
2018-12-01T03:51:43.586Z,17.27
2018-12-01T03:54:11.686Z,17.33
2018-12-01T03:56:45.777Z,18.43
2018-12-01T03:59:13.889Z,20.87
2018-12-01T04:01:42.004Z,19.33
2018-12-01T04:04:10.218Z,22.80
2018-12-01T04:06:38.220Z,20.27
2018-12-01T04:09:13.370Z,20.23
2018-12-01T04:11:42.553Z,20.10
2018-12-01T04:14:10.670Z,21.67
2018-12-01T04:16:38.823Z,15.87
2018-12-01T04:19:06.916Z,25.60
2018-12-01T04:21:35.037Z,22.17
2018-12-01T04:24:03.137Z,23.17
2018-12-01T04:26:31.232Z,17.97
2018-12-01T04:28:59.324Z,19.93
2018-12-01T04:31:27.420Z,23.83
2018-12-01T04:33:55.524Z,16.53
2018-12-01T04:36:23.592Z,22.03
2018-12-01T04:38:51.698Z,20.67
2018-12-01T04:41:19.810Z,24.40
2018-12-01T04:43:47.952Z,19.43
2018-12-01T04:46:16.037Z,20.47
2018-12-01T04:48:44.130Z,16.87
2018-12-01T04:51:12.260Z,18.57
2018-12-01T04:53:40.341Z,20.13
2018-12-01T04:56:08.417Z,11.83
2018-12-01T04:58:36.509Z,15.43
2018-12-01T05:01:04.700Z,21.93
2018-12-01T05:03:32.797Z,20.93
2018-12-01T05:06:00.882Z,22.07
2018-12-01T05:08:29.002Z,21.57
2018-12-01T05:10:57.088Z,21.63
2018-12-01T05:13:25.194Z,22.27
2018-12-01T05:15:53.326Z,21.20
2018-12-01T05:18:21.422Z,16.57
2018-12-01T05:20:49.531Z,18.33
2018-12-01T05:23:17.625Z,17.33
2018-12-01T05:25:45.748Z,13.90
2018-12-01T05:28:13.845Z,17.43
2018-12-01T05:30:42.083Z,14.20
2018-12-01T05:33:10.188Z,15.97
2018-12-01T05:35:38.300Z,15.27
2018-12-01T05:38:06.381Z,17.87
2018-12-01T05:40:34.470Z,21.03
2018-12-01T05:43:02.569Z,14.03
2018-12-01T05:45:30.712Z,14.70
2018-12-01T05:47:58.788Z,16.97
2018-12-01T05:50:27.707Z,15.07
2018-12-01T05:52:56.707Z,16.30
2018-12-01T05:55:24.990Z,17.33
2018-12-01T05:57:53.114Z,19.07
2018-12-01T06:00:21.481Z,16.77
2018-12-01T06:02:49.577Z,16.90
2018-12-01T06:05:17.680Z,20.90
2018-12-01T06:07:45.824Z,13.93
2018-12-01T06:10:15.058Z,19.10
2018-12-01T06:12:43.154Z,17.70
2018-12-01T06:15:12.331Z,17.37
2018-12-01T06:17:40.469Z,22.00
2018-12-01T06:20:09.904Z,22.97
2018-12-01T06:22:38.020Z,25.23
2018-12-01T06:25:08.006Z,22.47
2018-12-01T06:27:36.165Z,18.37
2018-12-01T06:30:06.499Z,20.93
2018-12-01T06:32:34.701Z,15.50
2018-12-01T06:35:02.799Z,16.37
2018-12-01T06:37:30.895Z,23.37
2018-12-01T06:39:58.972Z,20.20
2018-12-01T06:42:27.129Z,18.90
2018-12-01T06:44:55.224Z,19.90
2018-12-01T06:47:23.395Z,15.53
2018-12-01T06:49:51.484Z,19.70
2018-12-01T06:52:19.577Z,19.43
2018-12-01T06:54:47.677Z,12.87
2018-12-01T06:57:15.774Z,13.93
2018-12-01T06:59:43.880Z,15.10
2018-12-01T07:02:11.965Z,12.20
2018-12-01T07:04:40.086Z,10.17
2018-12-01T07:07:08.183Z,15.40
2018-12-01T07:09:36.279Z,12.40
2018-12-01T07:12:04.409Z,16.10
2018-12-01T07:14:32.494Z,21.90
2018-12-01T07:17:00.632Z,13.80
2018-12-01T07:19:28.724Z,48.23
2018-12-01T07:21:56.838Z,18.13
2018-12-01T07:24:24.932Z,17.20
2018-12-01T07:26:53.049Z,16.53
2018-12-01T07:29:21.141Z,17.67
2018-12-01T07:31:49.241Z,12.73
2018-12-01T07:34:17.362Z,16.37
2018-12-01T07:36:45.639Z,18.20
2018-12-01T07:39:13.727Z,17.27
2018-12-01T07:41:41.834Z,17.93
2018-12-01T07:44:09.943Z,13.57
2018-12-01T07:46:38.125Z,13.50
2018-12-01T07:49:06.214Z,13.83
2018-12-01T07:51:34.337Z,10.97
2018-12-01T07:54:02.472Z,11.60
2018-12-01T07:56:30.569Z,12.30
2018-12-01T07:58:58.648Z,16.23
2018-12-01T08:01:26.740Z,15.93
2018-12-01T08:03:54.862Z,16.90
2018-12-01T08:06:22.984Z,19.90
2018-12-01T08:08:51.095Z,17.63
2018-12-01T08:11:19.272Z,20.70
2018-12-01T08:13:47.358Z,13.50
2018-12-01T08:16:15.464Z,19.10
2018-12-01T08:18:43.562Z,17.13
2018-12-01T08:21:11.675Z,16.87
2018-12-01T08:23:39.842Z,16.70
2018-12-01T08:26:07.986Z,14.17
2018-12-01T08:28:36.133Z,14.77
2018-12-01T08:31:04.247Z,12.67
2018-12-01T08:33:32.363Z,10.10
2018-12-01T08:36:00.455Z,13.13
2018-12-01T08:38:28.570Z,11.60
2018-12-01T08:40:56.725Z,10.57
2018-12-01T08:43:24.820Z,14.57
2018-12-01T08:45:52.928Z,21.67
2018-12-01T08:48:21.035Z,17.87
2018-12-01T08:50:49.201Z,13.03
2018-12-01T08:53:17.292Z,10.80
2018-12-01T08:55:45.434Z,15.20
2018-12-01T08:58:13.634Z,14.47
2018-12-01T09:00:42.522Z,15.90
2018-12-01T09:03:19.145Z,13.13
2018-12-01T09:05:47.246Z,17.00
2018-12-01T09:08:15.341Z,18.47
2018-12-01T09:10:43.461Z,18.40
2018-12-01T09:13:11.572Z,9.20
2018-12-01T09:15:39.660Z,21.27
2018-12-01T09:18:07.804Z,12.73
2018-12-01T09:20:35.901Z,14.87
2018-12-01T09:23:04.001Z,15.70
2018-12-01T09:25:32.117Z,15.20
2018-12-01T09:28:00.345Z,14.93
2018-12-01T09:30:30.651Z,14.97
2018-12-01T09:32:58.745Z,15.50
2018-12-01T09:35:26.846Z,13.23
2018-12-01T09:37:54.979Z,16.03
2018-12-01T09:40:30.071Z,11.70
2018-12-01T09:42:59.965Z,10.73
2018-12-01T09:45:28.082Z,14.67
2018-12-01T09:47:56.474Z,13.43
2018-12-01T09:50:24.547Z,10.43
2018-12-01T09:52:53.750Z,12.33
2018-12-01T09:55:23.134Z,10.80
2018-12-01T09:57:51.850Z,7.83
2018-12-01T10:00:29.010Z,9.17
2018-12-01T10:02:57.387Z,11.70
2018-12-01T10:05:25.488Z,8.70
2018-12-01T10:07:53.576Z,9.57
2018-12-01T10:10:22.739Z,10.03
2018-12-01T10:12:52.776Z,10.80
2018-12-01T10:15:27.828Z,14.80
2018-12-01T10:17:55.989Z,12.83
2018-12-01T10:20:32.382Z,13.20
2018-12-01T10:23:01.429Z,11.40
2018-12-01T10:25:29.640Z,13.23
2018-12-01T10:27:57.745Z,12.07
2018-12-01T10:30:25.827Z,16.03
2018-12-01T10:32:53.948Z,8.50
2018-12-01T10:35:23.837Z,11.53
2018-12-01T10:37:54.605Z,10.17
2018-12-01T10:40:22.731Z,11.80
2018-12-01T10:42:50.840Z,11.30
2018-12-01T10:45:19.829Z,15.33
2018-12-01T10:47:48.287Z,12.90
2018-12-01T10:50:24.461Z,13.70
2018-12-01T10:52:53.679Z,15.27
2018-12-01T10:55:28.203Z,14.90
2018-12-01T10:57:59.427Z,12.10
2018-12-01T11:00:32.959Z,15.27
2018-12-01T11:05:14.976Z,15.23
2018-12-01T11:07:43.061Z,10.03
2018-12-01T11:10:11.164Z,14.50
2018-12-01T11:12:39.267Z,16.10
2018-12-01T11:15:08.465Z,9.27
2018-12-01T11:17:36.567Z,13.40
2018-12-01T11:20:07.682Z,11.30
2018-12-01T11:22:35.770Z,11.83
2018-12-01T11:25:05.787Z,8.90
2018-12-01T11:27:33.889Z,13.50
2018-12-01T11:30:02.009Z,12.23
2018-12-01T11:32:30.097Z,8.00
2018-12-01T11:34:58.194Z,10.50
2018-12-01T11:37:26.297Z,10.90
2018-12-01T11:39:54.383Z,15.00
2018-12-01T11:42:22.545Z,15.50
2018-12-01T11:44:50.678Z,9.53
2018-12-01T11:47:18.776Z,10.33
2018-12-01T11:49:47.017Z,6.50
2018-12-01T11:52:15.114Z,9.60
2018-12-01T11:54:43.222Z,11.27
2018-12-01T11:57:11.335Z,6.63
2018-12-01T11:59:39.434Z,10.13
2018-12-01T12:02:07.533Z,6.63
2018-12-01T12:04:35.654Z,9.60
2018-12-01T12:07:03.757Z,10.70
2018-12-01T12:09:31.870Z,6.43
2018-12-01T12:11:59.953Z,8.63
2018-12-01T12:14:28.073Z,10.87
2018-12-01T12:16:56.174Z,6.50
2018-12-01T12:19:24.260Z,8.07
2018-12-01T12:21:52.340Z,6.23
2018-12-01T12:24:20.460Z,11.07
2018-12-01T12:26:48.703Z,8.80
2018-12-01T12:29:16.802Z,12.33
2018-12-01T12:31:45.056Z,7.67
2018-12-01T12:34:13.275Z,9.90
2018-12-01T12:36:41.356Z,8.43
2018-12-01T12:39:09.454Z,7.43
2018-12-01T12:41:37.560Z,9.57
2018-12-01T12:44:05.977Z,10.73
2018-12-01T12:46:34.125Z,5.53
2018-12-01T12:49:02.190Z,4.47
2018-12-01T12:51:30.296Z,6.20
2018-12-01T12:53:58.395Z,5.50
2018-12-01T12:56:26.492Z,8.27
2018-12-01T12:58:54.585Z,5.90
2018-12-01T13:01:22.749Z,8.07
2018-12-01T13:03:50.833Z,8.77
2018-12-01T13:06:18.917Z,8.43
2018-12-01T13:08:47.021Z,11.13
2018-12-01T13:11:15.117Z,11.80
2018-12-01T13:13:43.233Z,6.53
2018-12-01T13:19:03.414Z,4.80
2018-12-01T13:21:31.536Z,7.33
2018-12-01T13:23:59.642Z,9.20
2018-12-01T13:26:27.735Z,6.73
2018-12-01T13:28:55.820Z,7.33
2018-12-01T13:31:23.927Z,10.43
2018-12-01T13:33:52.075Z,5.63
2018-12-01T13:36:20.177Z,7.83
2018-12-01T13:38:48.253Z,8.63
2018-12-01T13:41:16.362Z,9.60
2018-12-01T13:43:44.492Z,5.90
2018-12-01T13:46:12.610Z,7.37
2018-12-01T13:48:40.714Z,10.03
2018-12-01T13:51:08.837Z,6.13
2018-12-01T13:53:36.938Z,10.13
2018-12-01T13:56:05.215Z,7.07
2018-12-01T13:58:33.318Z,8.27
2018-12-01T14:01:01.447Z,7.73
2018-12-01T14:03:29.563Z,9.90
2018-12-01T14:05:57.687Z,4.20
2018-12-01T14:08:25.799Z,4.30
2018-12-01T14:10:53.907Z,11.10
2018-12-01T14:13:22.023Z,6.53
2018-12-01T14:15:50.131Z,7.57
2018-12-01T14:18:18.271Z,11.07
2018-12-01T14:20:46.383Z,9.00
2018-12-01T14:23:14.490Z,5.03
2018-12-01T14:25:42.579Z,7.10
2018-12-01T14:28:11.817Z,6.70
2018-12-01T14:30:39.901Z,10.40
2018-12-01T14:33:08.882Z,11.40
2018-12-01T14:35:37.886Z,14.50
2018-12-01T14:38:12.104Z,7.23
2018-12-01T14:40:41.406Z,7.30
2018-12-01T14:43:09.507Z,7.30
2018-12-01T14:45:37.797Z,9.40
2018-12-01T14:48:06.250Z,8.00
2018-12-01T14:50:34.351Z,8.60
2018-12-01T14:53:02.446Z,8.43
2018-12-01T14:55:30.538Z,6.60
2018-12-01T14:57:58.649Z,7.87
2018-12-01T15:00:26.812Z,5.43
2018-12-01T15:02:56.466Z,5.57
2018-12-01T15:05:25.599Z,10.60
2018-12-01T15:07:53.693Z,5.70
2018-12-01T15:10:28.374Z,4.73
2018-12-01T15:12:56.487Z,4.23
2018-12-01T15:15:25.668Z,8.87
2018-12-01T15:17:53.770Z,5.60
2018-12-01T15:20:22.760Z,8.27
2018-12-01T15:22:52.038Z,9.17
2018-12-01T15:25:22.376Z,8.20
2018-12-01T15:27:50.469Z,9.60
2018-12-01T15:30:21.502Z,8.30
2018-12-01T15:32:52.318Z,4.37
2018-12-01T15:35:20.429Z,8.07
2018-12-01T15:37:48.522Z,7.40
2018-12-01T15:40:17.770Z,11.60
2018-12-01T15:42:45.956Z,5.57
2018-12-01T15:45:19.269Z,8.07
2018-12-01T15:47:47.379Z,9.47
2018-12-01T15:50:17.382Z,8.47
2018-12-01T15:52:48.562Z,5.57
2018-12-01T15:55:16.669Z,5.13
2018-12-01T15:57:44.918Z,14.20
2018-12-01T16:00:16.989Z,10.67
2018-12-01T16:02:45.089Z,10.83
2018-12-01T16:05:14.061Z,10.53
2018-12-01T16:07:42.176Z,10.30
2018-12-01T16:10:18.319Z,9.60
2018-12-01T16:12:47.893Z,4.00
2018-12-01T16:15:20.584Z,9.30
2018-12-01T16:17:48.835Z,5.57
2018-12-01T16:20:16.921Z,9.90
2018-12-01T16:22:45.018Z,6.70
2018-12-01T16:25:14.333Z,6.90
2018-12-01T16:27:43.306Z,6.33
2018-12-01T16:30:43.733Z,9.80
2018-12-01T16:33:16.773Z,5.80
2018-12-01T16:35:44.917Z,9.30
2018-12-01T16:38:14.623Z,11.23
2018-12-01T16:40:48.036Z,10.07
2018-12-01T16:43:16.596Z,5.67
2018-12-01T16:45:45.983Z,6.87
2018-12-01T16:48:14.078Z,4.20
2018-12-01T16:50:42.186Z,8.00
2018-12-01T16:53:12.055Z,5.50
2018-12-01T16:55:40.140Z,6.53
2018-12-01T16:58:08.239Z,8.30
2018-12-01T17:00:36.359Z,6.67
2018-12-01T17:03:04.460Z,8.73
2018-12-01T17:05:34.151Z,3.30
2018-12-01T17:08:02.258Z,5.20
2018-12-01T17:10:30.360Z,4.53
2018-12-01T17:12:58.610Z,5.10
2018-12-01T17:15:26.734Z,8.93
2018-12-01T17:17:54.938Z,8.80
2018-12-01T17:20:23.032Z,5.37
2018-12-01T17:22:54.665Z,7.23
2018-12-01T17:25:22.742Z,6.67
2018-12-01T17:27:51.802Z,7.10
2018-12-01T17:30:21.002Z,5.50
2018-12-01T17:32:49.289Z,10.93
2018-12-01T17:35:21.274Z,8.43
2018-12-01T17:37:50.663Z,6.20
2018-12-01T17:40:21.621Z,8.03
2018-12-01T17:42:52.018Z,9.80
2018-12-01T17:45:20.136Z,9.23
2018-12-01T17:47:48.226Z,7.10
2018-12-01T17:50:16.905Z,6.93
2018-12-01T17:52:47.809Z,12.07
2018-12-01T17:55:16.265Z,5.53
2018-12-01T17:57:45.175Z,8.13
2018-12-01T18:00:17.870Z,7.93
2018-12-01T18:02:46.049Z,6.33
2018-12-01T18:05:15.753Z,8.07
2018-12-01T18:07:43.866Z,8.00
2018-12-01T18:10:13.224Z,12.27
2018-12-01T18:12:42.009Z,4.07
2018-12-01T18:15:15.213Z,8.30
2018-12-01T18:17:43.312Z,5.70
2018-12-01T18:20:18.376Z,12.10
2018-12-01T18:22:52.065Z,4.70
2018-12-01T18:25:20.176Z,5.80
2018-12-01T18:27:49.153Z,6.53
2018-12-01T18:30:20.283Z,7.40
2018-12-01T18:32:49.023Z,9.30
2018-12-01T18:35:17.125Z,8.03
2018-12-01T18:37:45.221Z,9.20
2018-12-01T18:40:15.188Z,6.43
2018-12-01T18:42:43.278Z,6.27
2018-12-01T18:45:14.513Z,10.80
2018-12-01T18:47:42.617Z,8.03
2018-12-01T18:50:13.828Z,7.53
2018-12-01T18:52:43.033Z,5.73
2018-12-01T18:55:13.277Z,5.90
2018-12-01T18:57:41.444Z,7.00
2018-12-01T19:00:14.057Z,8.00
2018-12-01T19:02:42.528Z,9.27
2018-12-01T19:05:10.642Z,8.70
2018-12-01T19:07:38.753Z,8.27
2018-12-01T19:10:13.363Z,7.20
2018-12-01T19:12:41.526Z,11.27
2018-12-01T19:15:13.697Z,9.13
2018-12-01T19:17:41.974Z,13.50
2018-12-01T19:20:13.137Z,10.50
2018-12-01T19:22:41.350Z,11.47
2018-12-01T19:25:10.816Z,15.10
2018-12-01T19:27:38.908Z,12.30
2018-12-01T19:30:13.645Z,8.10
2018-12-01T19:32:42.791Z,8.00
2018-12-01T19:35:12.456Z,7.10
2018-12-01T19:37:40.563Z,6.27
2018-12-01T19:40:33.940Z,6.67
2018-12-01T19:43:02.640Z,9.27
2018-12-01T19:45:30.724Z,7.20
2018-12-01T19:47:58.862Z,8.50
2018-12-01T19:50:30.354Z,5.70
2018-12-01T19:52:58.456Z,8.13
2018-12-01T19:55:27.303Z,7.40
2018-12-01T19:57:55.809Z,6.70
2018-12-01T20:00:25.193Z,7.33
2018-12-01T20:02:53.641Z,7.87
2018-12-01T20:05:21.988Z,5.63
2018-12-01T20:07:51.187Z,7.03
2018-12-01T20:10:23.737Z,8.80
2018-12-01T20:12:54.161Z,10.67
2018-12-01T20:15:33.023Z,12.23
2018-12-01T20:18:03.006Z,5.57
2018-12-01T20:20:31.211Z,11.27
2018-12-01T20:22:59.411Z,8.57
2018-12-01T20:25:27.622Z,9.67
2018-12-01T20:27:55.800Z,7.77
2018-12-01T20:30:23.909Z,8.03
2018-12-01T20:32:52.108Z,7.70
2018-12-01T20:35:32.518Z,7.60
2018-12-01T20:38:04.372Z,11.77
2018-12-01T20:40:32.494Z,9.30
2018-12-01T20:43:00.599Z,7.10
2018-12-01T20:45:28.729Z,6.33
2018-12-01T20:47:57.023Z,6.73
2018-12-01T20:50:25.156Z,6.90
2018-12-01T20:52:53.400Z,8.63
2018-12-01T20:55:24.489Z,9.03
2018-12-01T20:57:54.117Z,8.33
2018-12-01T21:00:22.210Z,10.30
2018-12-01T21:02:50.320Z,11.47
2018-12-01T21:05:19.848Z,7.70
2018-12-01T21:07:47.994Z,7.13
2018-12-01T21:10:18.851Z,5.80
2018-12-01T21:12:46.974Z,4.33
2018-12-01T21:15:15.116Z,5.73
2018-12-01T21:17:43.800Z,5.00
2018-12-01T21:20:13.962Z,6.67
2018-12-01T21:22:43.528Z,5.33
2018-12-01T21:25:12.918Z,5.37
2018-12-01T21:27:41.140Z,3.80
2018-12-01T21:30:16.744Z,5.17
2018-12-01T21:32:45.638Z,6.10
2018-12-01T21:35:13.967Z,6.40
2018-12-01T21:37:42.161Z,6.87
2018-12-01T21:40:17.537Z,6.13
2018-12-01T21:42:45.684Z,7.07
2018-12-01T21:45:16.418Z,3.40
2018-12-01T21:47:43.997Z,3.80
2018-12-01T21:50:14.247Z,7.23
2018-12-01T21:52:43.552Z,8.70
2018-12-01T21:55:12.136Z,4.03
2018-12-01T21:57:41.437Z,4.43
2018-12-01T22:00:12.685Z,4.20
2018-12-01T22:02:41.050Z,5.70
2018-12-01T22:05:12.302Z,5.50
2018-12-01T22:07:40.533Z,4.77
2018-12-01T22:10:11.813Z,5.43
2018-12-01T22:12:39.972Z,5.53
2018-12-01T22:15:14.891Z,6.40
2018-12-01T22:17:43.131Z,7.30
2018-12-01T22:20:12.904Z,3.80
2018-12-01T22:22:40.998Z,4.93
2018-12-01T22:25:10.082Z,8.30
2018-12-01T22:27:38.311Z,4.37
2018-12-01T22:30:10.715Z,2.73
2018-12-01T22:32:38.834Z,3.20
2018-12-01T22:35:12.649Z,5.03
2018-12-01T22:37:40.763Z,4.13
2018-12-01T22:40:14.074Z,2.50
2018-12-01T22:42:42.204Z,3.80
2018-12-01T22:45:10.328Z,4.03
2018-12-01T22:47:38.583Z,5.20
2018-12-01T22:50:12.113Z,3.73
2018-12-01T22:52:40.315Z,3.50
2018-12-01T22:55:16.781Z,2.60
2018-12-01T22:57:46.467Z,3.47
2018-12-01T23:00:18.131Z,4.27
2018-12-01T23:02:46.290Z,2.93
2018-12-01T23:05:14.402Z,5.20
2018-12-01T23:07:42.582Z,3.13
2018-12-01T23:10:11.837Z,6.50
2018-12-01T23:12:40.101Z,3.50
2018-12-01T23:15:11.499Z,9.73
2018-12-01T23:17:40.289Z,4.00
2018-12-01T23:20:13.557Z,4.07
2018-12-01T23:22:41.683Z,6.90
2018-12-01T23:25:11.395Z,5.40
2018-12-01T23:27:39.582Z,3.50
2018-12-01T23:30:16.201Z,2.63
2018-12-01T23:32:45.093Z,3.93
2018-12-01T23:35:13.210Z,4.47
2018-12-01T23:37:41.346Z,2.70
2018-12-01T23:40:10.942Z,6.00
2018-12-01T23:42:39.109Z,3.30
2018-12-01T23:45:11.835Z,3.00
2018-12-01T23:47:40.123Z,3.80
2018-12-01T23:50:10.443Z,2.70
2018-12-01T23:52:38.562Z,3.30
2018-12-01T23:55:08.999Z,6.67
2018-12-01T23:57:42.306Z,4.70
